createdAt,value
2022-12-18T00:01:26.982Z,156.60
2022-12-18T00:03:55.851Z,160.70
2022-12-18T00:06:26.529Z,151.00
2022-12-18T00:08:54.438Z,153.80
2022-12-18T00:11:24.534Z,157.13
2022-12-18T00:13:51.939Z,166.20
2022-12-18T00:16:21.912Z,488.13
2022-12-18T00:18:51.160Z,542.70
2022-12-18T00:21:18.769Z,519.43
2022-12-18T00:23:46.525Z,686.93
2022-12-18T00:26:20.994Z,599.13
2022-12-18T00:28:50.482Z,558.40
2022-12-18T00:31:22.572Z,322.17
2022-12-18T00:33:52.641Z,257.70
2022-12-18T00:36:30.955Z,312.70
2022-12-18T00:38:59.627Z,191.30
2022-12-18T00:41:46.022Z,168.40
2022-12-18T00:44:16.980Z,155.80
2022-12-18T00:46:45.422Z,181.30
2022-12-18T00:49:12.535Z,188.93
2022-12-18T00:51:39.490Z,275.20
2022-12-18T00:54:07.518Z,442.70
2022-12-18T00:56:48.053Z,387.37
2022-12-18T00:59:16.252Z,243.27
2022-12-18T01:01:43.726Z,176.93
2022-12-18T01:04:11.012Z,158.37
2022-12-18T01:06:38.187Z,159.57
2022-12-18T01:09:05.293Z,159.83
2022-12-18T01:11:32.675Z,157.83
2022-12-18T01:14:01.327Z,152.07
2022-12-18T01:16:28.498Z,157.20
2022-12-18T01:18:57.493Z,157.60
2022-12-18T01:21:25.147Z,149.73
2022-12-18T01:23:55.289Z,152.93
2022-12-18T01:26:25.747Z,152.97
2022-12-18T01:28:52.987Z,152.53
2022-12-18T01:31:33.492Z,154.03
2022-12-18T01:34:05.270Z,149.77
2022-12-18T01:36:36.027Z,154.27
2022-12-18T01:39:11.500Z,156.83
2022-12-18T01:41:58.371Z,156.73
2022-12-18T01:45:06.953Z,152.17
2022-12-18T01:47:45.756Z,155.10
2022-12-18T01:50:17.955Z,153.57
2022-12-18T01:52:49.636Z,153.53
2022-12-18T01:55:19.592Z,148.10
2022-12-18T01:57:47.936Z,157.87
2022-12-18T02:00:19.522Z,150.87
2022-12-18T02:02:48.165Z,152.63
2022-12-18T02:05:21.170Z,153.97
2022-12-18T02:08:12.120Z,156.43
2022-12-18T02:11:18.994Z,158.07
2022-12-18T02:14:05.393Z,150.17
2022-12-18T02:17:01.014Z,156.10
2022-12-18T02:19:56.842Z,152.77
2022-12-18T02:22:51.226Z,163.90
2022-12-18T02:25:55.159Z,202.00
2022-12-18T02:28:27.448Z,451.73
2022-12-18T02:31:00.942Z,500.27
2022-12-18T02:33:31.095Z,254.40
2022-12-18T02:36:00.101Z,326.90
2022-12-18T02:38:30.724Z,222.97
2022-12-18T02:41:04.413Z,162.63
2022-12-18T02:43:32.174Z,171.67
2022-12-18T02:46:02.701Z,153.47
2022-12-18T02:48:36.212Z,158.37
2022-12-18T02:51:41.664Z,150.73
2022-12-18T02:54:28.743Z,151.30
2022-12-18T02:56:59.841Z,161.37
2022-12-18T02:59:40.912Z,154.67
2022-12-18T03:02:35.300Z,157.73
2022-12-18T03:05:08.669Z,153.50
2022-12-18T03:07:47.843Z,155.07
2022-12-18T03:10:24.323Z,154.87
2022-12-18T03:13:19.605Z,156.43
2022-12-18T03:15:54.198Z,160.23
2022-12-18T03:18:30.933Z,160.47
2022-12-18T03:21:03.663Z,157.63
2022-12-18T03:23:36.434Z,160.07
2022-12-18T03:26:15.899Z,158.30
2022-12-18T03:28:55.369Z,159.93
2022-12-18T03:31:25.115Z,155.77
2022-12-18T03:33:59.252Z,159.93
2022-12-18T03:36:34.560Z,155.70
2022-12-18T03:39:02.191Z,161.23
2022-12-18T03:41:56.053Z,160.10
2022-12-18T03:44:58.046Z,382.80
2022-12-18T03:47:41.357Z,367.30
2022-12-18T03:50:46.296Z,238.60
2022-12-18T03:53:37.435Z,269.17
2022-12-18T03:56:06.124Z,190.43
2022-12-18T03:58:39.886Z,336.53
2022-12-18T04:01:18.769Z,241.90
2022-12-18T04:03:50.570Z,268.33
2022-12-18T04:06:20.147Z,297.40
2022-12-18T04:08:48.068Z,199.27
2022-12-18T04:11:18.507Z,234.70
2022-12-18T04:13:47.498Z,201.67
2022-12-18T04:16:24.807Z,164.60
2022-12-18T04:18:55.891Z,156.67
2022-12-18T04:21:25.295Z,155.63
2022-12-18T04:23:53.154Z,151.83
2022-12-18T04:26:22.909Z,160.90
2022-12-18T04:29:10.114Z,163.60
2022-12-18T04:31:37.983Z,159.50
2022-12-18T04:34:05.456Z,155.77
2022-12-18T04:36:38.869Z,157.10
2022-12-18T04:39:05.862Z,160.43
2022-12-18T04:41:33.299Z,162.57
2022-12-18T04:44:00.874Z,164.50
2022-12-18T04:46:27.952Z,161.83
2022-12-18T04:48:55.004Z,167.70
2022-12-18T04:51:26.313Z,158.23
2022-12-18T04:53:54.698Z,160.27
2022-12-18T04:56:22.266Z,161.10
2022-12-18T04:58:49.542Z,161.27
2022-12-18T05:01:19.178Z,161.27
2022-12-18T05:03:46.503Z,162.27
2022-12-18T05:06:13.601Z,181.27
2022-12-18T05:08:40.732Z,161.93
2022-12-18T05:11:11.624Z,169.47
2022-12-18T05:13:39.757Z,161.47
2022-12-18T05:16:07.910Z,160.80
2022-12-18T05:18:35.640Z,166.00
2022-12-18T05:21:03.204Z,160.73
2022-12-18T05:23:30.337Z,155.57
2022-12-18T05:26:01.522Z,162.03
2022-12-18T05:28:32.035Z,160.67
2022-12-18T05:31:01.834Z,156.37
2022-12-18T05:33:32.865Z,156.87
2022-12-18T05:36:02.759Z,166.97
2022-12-18T05:38:31.588Z,156.00
2022-12-18T05:40:59.358Z,158.10
2022-12-18T05:43:28.145Z,156.40
2022-12-18T05:45:55.647Z,161.60
2022-12-18T05:48:23.269Z,161.40
2022-12-18T05:50:51.945Z,152.70
2022-12-18T05:53:21.493Z,153.13
2022-12-18T05:55:48.729Z,159.90
2022-12-18T05:58:16.624Z,154.67
2022-12-18T06:00:46.671Z,166.63
2022-12-18T06:03:15.052Z,169.67
2022-12-18T06:05:44.919Z,162.77
2022-12-18T06:08:14.117Z,158.37
2022-12-18T06:10:42.135Z,160.90
2022-12-18T06:13:09.367Z,160.03
2022-12-18T06:15:39.469Z,154.90
2022-12-18T06:18:06.504Z,164.47
2022-12-18T06:20:34.236Z,159.07
2022-12-18T06:23:01.424Z,161.97
2022-12-18T06:25:28.629Z,160.73
2022-12-18T06:27:55.923Z,159.43
2022-12-18T06:30:23.875Z,162.10
2022-12-18T06:32:56.303Z,154.23
2022-12-18T06:35:24.228Z,153.17
2022-12-18T06:37:51.158Z,157.30
2022-12-18T06:40:18.332Z,162.90
2022-12-18T06:42:45.297Z,169.03
2022-12-18T06:45:12.655Z,174.00
2022-12-18T06:47:39.620Z,171.43
2022-12-18T06:50:07.461Z,162.67
2022-12-18T06:52:34.858Z,174.10
2022-12-18T06:55:01.958Z,187.40
2022-12-18T06:57:28.887Z,186.10
2022-12-18T06:59:55.878Z,165.33
2022-12-18T07:02:22.998Z,184.33
2022-12-18T07:04:50.060Z,186.20
2022-12-18T07:07:17.105Z,255.43
2022-12-18T07:09:44.080Z,265.30
2022-12-18T07:12:11.265Z,217.20
2022-12-18T07:14:38.209Z,245.17
2022-12-18T07:17:05.223Z,168.73
2022-12-18T07:19:33.806Z,173.20
2022-12-18T07:22:01.589Z,166.27
2022-12-18T07:24:29.483Z,199.17
2022-12-18T07:26:56.453Z,262.87
2022-12-18T07:29:23.438Z,209.43
2022-12-18T07:31:50.626Z,198.77
2022-12-18T07:34:18.429Z,197.77
2022-12-18T07:36:45.463Z,181.67
2022-12-18T07:39:12.931Z,181.53
2022-12-18T07:41:46.770Z,186.47
2022-12-18T07:44:16.466Z,179.27
2022-12-18T07:46:43.479Z,251.67
2022-12-18T07:49:10.399Z,240.63
2022-12-18T07:51:37.360Z,273.43
2022-12-18T07:54:04.454Z,237.03
2022-12-18T07:56:31.760Z,205.07
2022-12-18T07:59:00.326Z,165.73
2022-12-18T08:01:27.967Z,200.33
2022-12-18T08:03:55.222Z,199.00
2022-12-18T08:06:23.788Z,199.67
2022-12-18T08:08:56.365Z,170.03
2022-12-18T08:11:25.500Z,234.00
2022-12-18T08:13:52.686Z,209.93
2022-12-18T08:16:20.720Z,228.37
2022-12-18T08:18:48.047Z,202.53
2022-12-18T08:21:22.192Z,223.27
2022-12-18T08:23:51.346Z,196.10
2022-12-18T08:26:19.850Z,174.53
2022-12-18T08:28:48.045Z,289.90
2022-12-18T08:31:15.311Z,222.63
2022-12-18T08:33:43.470Z,229.97
2022-12-18T08:36:11.315Z,288.33
2022-12-18T08:38:38.688Z,264.17
2022-12-18T08:41:14.698Z,224.70
2022-12-18T08:44:00.530Z,193.30
2022-12-18T08:46:33.623Z,198.53
2022-12-18T08:49:00.631Z,232.00
2022-12-18T08:51:27.953Z,262.13
2022-12-18T08:53:54.918Z,204.13
2022-12-18T08:56:22.018Z,201.37
2022-12-18T08:58:48.978Z,177.73
2022-12-18T09:01:16.149Z,188.13
2022-12-18T09:03:43.712Z,248.87
2022-12-18T09:06:16.802Z,276.83
2022-12-18T09:08:45.222Z,233.90
2022-12-18T09:11:25.881Z,210.27
2022-12-18T09:13:54.834Z,202.83
2022-12-18T09:16:28.785Z,237.60
2022-12-18T09:19:00.795Z,343.27
2022-12-18T09:21:36.911Z,310.90
2022-12-18T09:24:05.049Z,227.27
2022-12-18T09:26:35.552Z,272.03
2022-12-18T09:29:04.704Z,257.30
2022-12-18T09:31:31.702Z,243.03
2022-12-18T09:33:58.706Z,214.30
2022-12-18T09:36:26.052Z,201.97
2022-12-18T09:38:54.129Z,230.23
2022-12-18T09:41:48.987Z,213.40
2022-12-18T09:44:27.754Z,318.83
2022-12-18T09:47:02.311Z,275.17
2022-12-18T09:49:32.638Z,232.07
2022-12-18T09:52:18.319Z,286.33
2022-12-18T09:54:52.308Z,207.47
2022-12-18T09:57:24.419Z,201.13
2022-12-18T10:00:26.082Z,266.83
2022-12-18T10:03:01.545Z,222.67
2022-12-18T10:06:19.983Z,199.30
2022-12-18T10:08:56.393Z,184.50
2022-12-18T10:11:44.302Z,200.17
2022-12-18T10:14:23.184Z,229.37
2022-12-18T10:17:02.161Z,217.07
2022-12-18T10:19:51.056Z,202.53
2022-12-18T10:22:44.742Z,224.50
2022-12-18T10:25:23.479Z,274.63
2022-12-18T10:27:57.512Z,204.00
2022-12-18T10:30:26.902Z,308.10
2022-12-18T10:32:55.161Z,229.57
2022-12-18T10:35:30.387Z,224.93
2022-12-18T10:38:29.399Z,277.67
2022-12-18T10:41:03.780Z,265.77
2022-12-18T10:43:39.018Z,224.53
2022-12-18T10:46:09.086Z,247.70
2022-12-18T10:48:55.575Z,280.73
2022-12-18T10:51:37.433Z,225.70
2022-12-18T10:54:23.785Z,220.53
2022-12-18T10:56:51.166Z,347.33
2022-12-18T10:59:19.827Z,295.50
2022-12-18T11:01:54.989Z,225.00
2022-12-18T11:04:31.947Z,277.33
2022-12-18T11:07:08.508Z,194.60
2022-12-18T11:09:38.290Z,228.03
2022-12-18T11:12:27.505Z,332.33
2022-12-18T11:14:57.044Z,179.07
2022-12-18T11:17:36.576Z,183.30
2022-12-18T11:20:08.086Z,206.33
2022-12-18T11:22:37.438Z,205.83
2022-12-18T11:25:32.276Z,237.17
2022-12-18T11:28:05.917Z,252.77
2022-12-18T11:30:39.170Z,206.53
2022-12-18T11:33:23.105Z,203.67
2022-12-18T11:36:05.930Z,196.77
2022-12-18T11:38:40.774Z,226.37
2022-12-18T11:41:16.797Z,195.93
2022-12-18T11:44:00.757Z,206.80
2022-12-18T11:46:46.569Z,198.20
2022-12-18T11:49:36.464Z,236.93
2022-12-18T11:52:15.580Z,226.97
2022-12-18T11:54:42.615Z,179.87
2022-12-18T11:57:31.868Z,235.90
2022-12-18T12:00:25.806Z,218.33
2022-12-18T12:03:36.808Z,214.63
2022-12-18T12:07:00.058Z,269.03
2022-12-18T12:09:41.450Z,404.53
2022-12-18T12:12:54.720Z,261.53
2022-12-18T12:15:46.415Z,207.80
2022-12-18T12:18:32.655Z,95.00
2022-12-18T12:21:25.435Z,49.87
2022-12-18T12:24:10.968Z,58.00
2022-12-18T12:26:59.856Z,48.60
2022-12-18T12:29:54.014Z,53.50
2022-12-18T12:33:04.842Z,67.43
2022-12-18T12:35:53.434Z,63.10
2022-12-18T12:38:51.626Z,54.93
2022-12-18T12:41:43.717Z,55.07
2022-12-18T12:44:21.059Z,55.20
2022-12-18T12:46:49.571Z,59.17
2022-12-18T12:49:22.006Z,62.10
2022-12-18T12:52:37.960Z,64.90
2022-12-18T12:55:14.488Z,70.70
2022-12-18T12:57:47.642Z,61.70
2022-12-18T13:00:20.403Z,73.07
2022-12-18T13:03:27.446Z,73.23
2022-12-18T13:06:29.806Z,54.67
2022-12-18T13:09:02.173Z,50.57
2022-12-18T13:11:59.958Z,54.00
2022-12-18T13:14:32.425Z,60.17
2022-12-18T13:17:21.083Z,51.53
2022-12-18T13:20:09.607Z,54.93
2022-12-18T13:22:58.489Z,54.13
2022-12-18T13:25:35.769Z,60.10
2022-12-18T13:28:10.291Z,66.53
2022-12-18T13:30:37.305Z,61.47
2022-12-18T13:33:18.965Z,61.60
2022-12-18T13:35:49.890Z,69.70
2022-12-18T13:38:36.962Z,61.40
2022-12-18T13:41:26.978Z,50.53
2022-12-18T13:43:58.231Z,48.30
2022-12-18T13:46:46.876Z,53.10
2022-12-18T13:49:13.735Z,50.37
2022-12-18T13:51:55.825Z,49.63
2022-12-18T13:54:37.963Z,50.37
2022-12-18T13:57:24.417Z,56.77
2022-12-18T13:59:52.189Z,56.70
2022-12-18T14:02:25.456Z,52.30
2022-12-18T14:04:54.334Z,51.37
2022-12-18T14:07:26.168Z,47.77
2022-12-18T14:13:00.724Z,53.70
2022-12-18T14:15:36.498Z,50.90
2022-12-18T14:18:40.515Z,56.67
2022-12-18T14:21:18.308Z,62.33
2022-12-18T14:23:45.744Z,52.83
2022-12-18T14:26:29.850Z,65.23
2022-12-18T14:28:58.160Z,58.53
2022-12-18T14:31:31.072Z,113.73
2022-12-18T14:33:58.352Z,126.30
2022-12-18T14:36:29.302Z,60.27
2022-12-18T14:38:58.697Z,115.37
2022-12-18T14:41:27.267Z,81.33
2022-12-18T14:43:55.904Z,87.90
2022-12-18T14:46:40.574Z,323.58
2022-12-18T14:49:35.143Z,279.97
2022-12-18T14:52:34.993Z,266.10
2022-12-18T14:55:02.014Z,199.43
2022-12-18T14:57:38.876Z,168.80
2022-12-18T15:00:09.124Z,187.80
2022-12-18T15:02:37.483Z,154.03
2022-12-18T15:05:19.707Z,107.63
2022-12-18T15:07:50.080Z,107.33
2022-12-18T15:10:25.536Z,77.37
2022-12-18T15:13:00.774Z,69.17
2022-12-18T15:15:44.351Z,77.40
2022-12-18T15:18:11.517Z,89.37
2022-12-18T15:21:01.607Z,95.43
2022-12-18T15:23:45.443Z,85.67
2022-12-18T15:26:15.774Z,62.53
2022-12-18T15:28:59.467Z,85.13
2022-12-18T15:31:32.482Z,82.60
2022-12-18T15:34:00.530Z,76.13
2022-12-18T15:36:27.895Z,84.17
2022-12-18T15:39:05.369Z,79.50
2022-12-18T15:41:36.526Z,92.70
2022-12-18T15:44:16.620Z,83.27
2022-12-18T15:46:43.668Z,73.77
2022-12-18T15:49:10.639Z,108.10
2022-12-18T15:51:39.921Z,89.13
2022-12-18T15:54:15.041Z,91.50
2022-12-18T15:57:00.449Z,108.43
2022-12-18T15:59:27.973Z,152.20
2022-12-18T16:01:55.250Z,160.37
2022-12-18T16:04:24.607Z,171.47
2022-12-18T16:07:14.775Z,201.70
2022-12-18T16:09:39.972Z,191.13
2022-12-18T16:12:23.818Z,225.80
2022-12-18T16:14:51.734Z,194.77
2022-12-18T16:17:19.190Z,177.33
2022-12-18T16:19:46.526Z,187.10
2022-12-18T16:22:29.057Z,196.60
2022-12-18T16:24:57.918Z,211.63
2022-12-18T16:27:25.861Z,174.00
2022-12-18T16:29:52.885Z,189.80
2022-12-18T16:32:23.281Z,182.13
2022-12-18T16:34:51.335Z,201.10
2022-12-18T16:37:18.453Z,189.00
2022-12-18T16:39:45.705Z,168.93
2022-12-18T16:42:17.905Z,177.60
2022-12-18T16:44:47.177Z,176.13
2022-12-18T16:47:15.197Z,167.73
2022-12-18T16:49:45.266Z,163.47
2022-12-18T16:52:13.818Z,178.30
2022-12-18T16:54:40.929Z,165.97
2022-12-18T16:57:10.189Z,130.63
2022-12-18T16:59:37.310Z,135.53
2022-12-18T17:02:05.380Z,174.73
2022-12-18T17:04:32.692Z,81.10
2022-12-18T17:06:59.703Z,70.77
2022-12-18T17:09:26.669Z,75.97
2022-12-18T17:11:58.259Z,78.37
2022-12-18T17:14:28.440Z,74.07
2022-12-18T17:17:20.200Z,90.97
2022-12-18T17:19:44.077Z,73.57
2022-12-18T17:22:11.441Z,67.20
2022-12-18T17:24:38.543Z,58.67
2022-12-18T17:27:05.637Z,86.90
2022-12-18T17:29:32.714Z,58.77
2022-12-18T17:32:00.437Z,66.63
2022-12-18T17:34:28.353Z,67.53
2022-12-18T17:36:56.865Z,62.77
2022-12-18T17:39:24.084Z,54.20
2022-12-18T17:41:51.079Z,55.00
2022-12-18T17:44:18.782Z,56.10
2022-12-18T17:46:46.421Z,55.33
2022-12-18T17:49:14.150Z,55.03
2022-12-18T17:51:44.743Z,65.57
2022-12-18T17:54:11.750Z,65.53
2022-12-18T17:56:39.632Z,73.40
2022-12-18T17:59:07.231Z,62.30
2022-12-18T18:01:37.355Z,52.67
2022-12-18T18:04:08.291Z,67.27
2022-12-18T18:06:39.384Z,48.93
2022-12-18T18:09:10.315Z,64.27
2022-12-18T18:12:04.130Z,51.27
2022-12-18T18:14:31.448Z,61.23
2022-12-18T18:17:03.629Z,54.80
2022-12-18T18:19:32.881Z,58.47
2022-12-18T18:22:00.344Z,54.90
2022-12-18T18:24:27.305Z,59.77
2022-12-18T18:26:54.360Z,61.30
2022-12-18T18:29:26.067Z,68.67
2022-12-18T18:31:54.000Z,65.47
2022-12-18T18:34:24.302Z,55.67
2022-12-18T18:36:52.182Z,55.13
2022-12-18T18:39:19.785Z,69.10
2022-12-18T18:41:48.452Z,68.80
2022-12-18T18:44:16.948Z,69.93
2022-12-18T18:46:45.155Z,61.20
2022-12-18T18:49:13.860Z,68.23
2022-12-18T18:51:43.956Z,54.73
2022-12-18T18:54:11.004Z,52.57
2022-12-18T18:57:04.170Z,59.00
2022-12-18T18:59:31.792Z,58.73
2022-12-18T19:02:04.172Z,60.60
2022-12-18T19:04:33.770Z,73.47
2022-12-18T19:07:01.111Z,66.33
2022-12-18T19:09:28.753Z,66.57
2022-12-18T19:12:14.761Z,69.03
2022-12-18T19:14:42.547Z,54.30
2022-12-18T19:17:10.627Z,57.30
2022-12-18T19:19:37.943Z,63.60
2022-12-18T19:22:04.972Z,79.23
2022-12-18T19:24:32.336Z,64.17
2022-12-18T19:26:59.383Z,68.93
2022-12-18T19:29:26.351Z,72.00
2022-12-18T19:31:53.367Z,65.33
2022-12-18T19:34:20.641Z,60.90
2022-12-18T19:36:48.070Z,68.47
2022-12-18T19:39:19.223Z,59.67
2022-12-18T19:41:47.355Z,74.70
2022-12-18T19:44:18.177Z,59.90
2022-12-18T19:46:46.334Z,67.63
2022-12-18T19:49:18.147Z,52.80
2022-12-18T19:51:46.466Z,53.50
2022-12-18T19:54:17.064Z,52.80
2022-12-18T19:56:45.728Z,51.97
2022-12-18T19:59:13.209Z,53.23
2022-12-18T20:01:41.103Z,54.53
2022-12-18T20:04:08.434Z,51.90
2022-12-18T20:06:49.290Z,58.37
2022-12-18T20:09:17.452Z,46.60
2022-12-18T20:11:45.033Z,48.17
2022-12-18T20:14:14.900Z,66.20
2022-12-18T20:16:46.788Z,50.87
2022-12-18T20:19:14.317Z,54.73
2022-12-18T20:21:42.822Z,43.70
2022-12-18T20:24:10.235Z,51.10
2022-12-18T20:26:37.234Z,56.80
2022-12-18T20:29:04.557Z,69.73
2022-12-18T20:31:31.562Z,66.73
2022-12-18T20:34:01.548Z,48.57
2022-12-18T20:36:31.827Z,50.77
2022-12-18T20:39:02.716Z,50.33
2022-12-18T20:41:38.804Z,58.37
2022-12-18T20:44:22.472Z,68.83
2022-12-18T20:46:59.183Z,69.70
2022-12-18T20:49:28.243Z,52.00
2022-12-18T20:51:57.618Z,63.43
2022-12-18T20:54:27.407Z,47.67
2022-12-18T20:56:55.149Z,47.67
2022-12-18T20:59:23.357Z,44.63
2022-12-18T21:01:52.149Z,56.83
2022-12-18T21:04:19.565Z,82.47
2022-12-18T21:06:53.085Z,75.13
2022-12-18T21:09:23.507Z,79.63
2022-12-18T21:12:11.137Z,58.53
2022-12-18T21:14:42.163Z,47.30
2022-12-18T21:17:09.305Z,54.47
2022-12-18T21:19:36.481Z,52.37
2022-12-18T21:22:04.410Z,69.20
2022-12-18T21:24:32.990Z,57.57
2022-12-18T21:27:00.134Z,73.43
2022-12-18T21:29:27.157Z,65.13
2022-12-18T21:31:54.778Z,54.23
2022-12-18T21:34:26.385Z,56.13
2022-12-18T21:36:55.419Z,62.90
2022-12-18T21:39:22.990Z,47.57
2022-12-18T21:42:09.240Z,62.10
2022-12-18T21:44:41.983Z,56.50
2022-12-18T21:47:21.677Z,49.33
2022-12-18T21:49:53.751Z,43.47
2022-12-18T21:52:30.908Z,51.37
2022-12-18T21:55:03.246Z,41.70
2022-12-18T21:57:35.259Z,50.33
2022-12-18T22:00:03.010Z,53.37
2022-12-18T22:02:39.484Z,53.87
2022-12-18T22:05:07.418Z,61.27
2022-12-18T22:07:34.619Z,69.47
2022-12-18T22:10:02.015Z,54.87
2022-12-18T22:12:43.573Z,57.77
2022-12-18T22:15:19.190Z,61.43
2022-12-18T22:17:50.460Z,56.00
2022-12-18T22:20:20.221Z,53.50
2022-12-18T22:22:48.666Z,51.83
2022-12-18T22:25:15.760Z,95.67
2022-12-18T22:27:42.848Z,45.30
2022-12-18T22:30:14.502Z,60.83
2022-12-18T22:32:41.589Z,62.07
2022-12-18T22:35:15.433Z,62.33
2022-12-18T22:37:42.896Z,69.70
2022-12-18T22:40:23.926Z,50.33
2022-12-18T22:42:53.263Z,51.03
2022-12-18T22:45:20.502Z,49.77
2022-12-18T22:47:47.536Z,41.03
2022-12-18T22:50:15.246Z,40.17
2022-12-18T22:52:42.342Z,46.77
2022-12-18T22:55:09.528Z,53.83
2022-12-18T22:57:36.495Z,48.80
2022-12-18T23:00:06.494Z,46.40
2022-12-18T23:02:33.591Z,60.43
2022-12-18T23:05:00.742Z,41.57
2022-12-18T23:07:27.692Z,39.80
2022-12-18T23:10:00.592Z,39.80
2022-12-18T23:12:28.151Z,37.73
2022-12-18T23:14:55.110Z,36.73
2022-12-18T23:17:22.059Z,33.07
2022-12-18T23:19:49.562Z,35.50
2022-12-18T23:22:17.496Z,34.80
2022-12-18T23:24:44.548Z,77.67
2022-12-18T23:27:12.279Z,37.90
2022-12-18T23:29:40.585Z,36.37
2022-12-18T23:32:08.171Z,33.40
2022-12-18T23:34:35.129Z,41.20
2022-12-18T23:37:03.756Z,34.53
2022-12-18T23:39:31.127Z,37.90
2022-12-18T23:41:59.292Z,35.60
2022-12-18T23:44:26.397Z,38.67
2022-12-18T23:46:53.612Z,33.93
2022-12-18T23:49:20.669Z,36.53
2022-12-18T23:51:47.678Z,32.40
2022-12-18T23:54:14.713Z,37.90
2022-12-18T23:56:41.972Z,23.13
2022-12-18T23:59:09.102Z,29.00
